createdAt,value
2018-07-16T00:00:43.977Z,19.70
2018-07-16T00:03:12.037Z,19.70
2018-07-16T00:05:40.102Z,19.70
2018-07-16T00:08:08.168Z,19.80
2018-07-16T00:10:36.220Z,19.80
2018-07-16T00:13:04.310Z,19.90
2018-07-16T00:15:32.380Z,19.90
2018-07-16T00:18:00.457Z,19.90
2018-07-16T00:20:28.515Z,20.00
2018-07-16T00:22:56.572Z,20.00
2018-07-16T00:25:24.628Z,20.00
2018-07-16T00:30:20.617Z,20.00
2018-07-16T00:32:48.689Z,20.00
2018-07-16T00:35:16.752Z,20.00
2018-07-16T00:37:44.825Z,20.00
2018-07-16T00:40:13.018Z,20.00
2018-07-16T00:42:41.076Z,20.00
2018-07-16T00:45:09.133Z,19.90
2018-07-16T00:47:37.193Z,19.80
2018-07-16T00:50:05.273Z,19.80
2018-07-16T00:52:33.337Z,19.80
2018-07-16T00:55:01.401Z,19.70
2018-07-16T00:57:29.476Z,19.70
2018-07-16T00:59:57.523Z,19.60
2018-07-16T01:02:25.571Z,19.40
2018-07-16T01:04:53.637Z,19.30
2018-07-16T01:07:21.736Z,19.20
2018-07-16T01:09:49.796Z,19.10
2018-07-16T01:12:17.968Z,19.10
2018-07-16T01:14:46.033Z,19.10
2018-07-16T01:17:14.096Z,19.10
2018-07-16T01:19:42.161Z,19.10
2018-07-16T01:22:10.220Z,19.10
2018-07-16T01:24:38.285Z,19.10
2018-07-16T01:27:06.341Z,19.10
2018-07-16T01:29:34.416Z,19.10
2018-07-16T01:32:02.476Z,19.10
2018-07-16T01:34:30.540Z,19.10
2018-07-16T01:36:58.648Z,19.10
2018-07-16T01:39:26.723Z,19.10
2018-07-16T01:41:54.781Z,19.20
2018-07-16T01:44:22.844Z,19.20
2018-07-16T01:46:51.100Z,19.20
2018-07-16T01:49:19.148Z,19.20
2018-07-16T01:51:47.209Z,19.20
2018-07-16T01:54:15.289Z,19.20
2018-07-16T01:56:43.369Z,19.20
2018-07-16T01:59:11.448Z,19.20
2018-07-16T02:01:39.528Z,19.20
2018-07-16T02:04:07.620Z,19.10
2018-07-16T02:06:35.689Z,19.10
2018-07-16T02:09:04.485Z,19.00
2018-07-16T02:11:32.552Z,19.00
2018-07-16T02:14:00.792Z,19.00
2018-07-16T02:16:28.867Z,18.90
2018-07-16T02:18:56.936Z,18.90
2018-07-16T02:21:25.012Z,18.90
2018-07-16T02:23:53.076Z,18.90
2018-07-16T02:26:21.132Z,19.00
2018-07-16T02:28:49.204Z,19.00
2018-07-16T02:31:17.269Z,19.10
2018-07-16T02:33:45.351Z,19.20
2018-07-16T02:36:13.401Z,19.20
2018-07-16T02:38:41.545Z,19.30
2018-07-16T02:41:09.548Z,19.40
2018-07-16T02:43:37.616Z,19.40
2018-07-16T02:46:05.828Z,19.40
2018-07-16T02:48:34.501Z,19.40
2018-07-16T02:51:02.547Z,19.50
2018-07-16T02:53:30.608Z,19.50
2018-07-16T02:55:58.669Z,19.50
2018-07-16T02:58:26.732Z,19.60
2018-07-16T03:00:54.800Z,19.50
2018-07-16T03:03:22.864Z,19.50
2018-07-16T03:05:50.923Z,19.50
2018-07-16T03:08:18.985Z,19.50
2018-07-16T03:10:47.061Z,19.50
2018-07-16T03:13:15.128Z,19.50
2018-07-16T03:15:43.200Z,19.50
2018-07-16T03:18:11.333Z,19.50
2018-07-16T03:20:39.319Z,19.40
2018-07-16T03:23:07.376Z,19.40
2018-07-16T03:25:35.440Z,19.30
2018-07-16T03:28:03.501Z,19.20
2018-07-16T03:30:31.570Z,19.20
2018-07-16T03:32:59.635Z,19.20
2018-07-16T03:35:27.737Z,19.20
2018-07-16T03:37:55.804Z,19.20
2018-07-16T03:40:23.868Z,19.30
2018-07-16T03:42:52.017Z,19.30
2018-07-16T03:45:20.087Z,19.40
2018-07-16T03:47:48.156Z,19.30
2018-07-16T03:50:16.228Z,19.30
2018-07-16T03:52:44.281Z,19.40
2018-07-16T03:55:12.340Z,19.40
2018-07-16T03:57:40.412Z,19.40
2018-07-16T04:00:08.485Z,19.40
2018-07-16T04:02:36.532Z,19.30
2018-07-16T04:05:04.640Z,19.30
2018-07-16T04:07:32.704Z,19.30
2018-07-16T04:10:00.764Z,19.30
2018-07-16T04:12:28.824Z,19.30
2018-07-16T04:14:56.890Z,19.30
2018-07-16T04:17:25.009Z,19.30
2018-07-16T04:19:53.073Z,19.20
2018-07-16T04:22:21.128Z,19.20
2018-07-16T04:24:49.201Z,19.20
2018-07-16T04:27:17.249Z,19.30
2018-07-16T04:29:45.319Z,19.30
2018-07-16T04:32:13.375Z,19.30
2018-07-16T04:34:41.440Z,19.30
2018-07-16T04:37:09.509Z,19.40
2018-07-16T04:39:37.571Z,19.30
2018-07-16T04:42:05.623Z,19.40
2018-07-16T04:44:33.684Z,19.50
2018-07-16T04:47:01.744Z,19.50
2018-07-16T04:49:29.809Z,19.60
2018-07-16T04:51:57.856Z,19.70
2018-07-16T04:54:26.048Z,19.80
2018-07-16T04:56:54.109Z,19.90
2018-07-16T04:59:22.177Z,20.00
2018-07-16T05:01:50.232Z,20.10
2018-07-16T05:04:18.312Z,20.20
2018-07-16T05:06:46.372Z,20.30
2018-07-16T05:09:14.440Z,20.40
2018-07-16T05:11:42.500Z,20.50
2018-07-16T05:14:10.575Z,20.60
2018-07-16T05:16:38.620Z,20.70
2018-07-16T05:19:06.678Z,20.70
2018-07-16T05:21:34.769Z,20.70
2018-07-16T05:24:02.854Z,20.80
2018-07-16T05:26:30.852Z,20.80
2018-07-16T05:28:58.901Z,20.80
2018-07-16T05:31:26.979Z,20.90
2018-07-16T05:33:55.156Z,21.10
2018-07-16T05:36:23.200Z,21.30
2018-07-16T05:38:51.308Z,21.50
2018-07-16T05:41:19.361Z,21.70
2018-07-16T05:43:47.405Z,21.80
2018-07-16T05:46:15.461Z,21.90
2018-07-16T05:48:43.592Z,21.90
2018-07-16T05:51:11.644Z,22.00
2018-07-16T05:53:39.688Z,22.00
2018-07-16T05:56:07.728Z,22.00
2018-07-16T05:58:35.781Z,22.00
2018-07-16T06:01:03.828Z,22.10
2018-07-16T06:03:31.884Z,22.20
2018-07-16T06:05:59.937Z,22.40
2018-07-16T06:08:28.000Z,22.40
2018-07-16T06:10:56.057Z,22.50
2018-07-16T06:13:24.102Z,22.50
2018-07-16T06:15:52.153Z,22.60
2018-07-16T06:18:20.208Z,22.50
2018-07-16T06:20:48.260Z,22.30
2018-07-16T06:23:16.297Z,22.10
2018-07-16T06:25:44.348Z,22.10
2018-07-16T06:28:12.385Z,22.20
2018-07-16T06:30:40.432Z,22.30
2018-07-16T06:33:08.476Z,22.30
2018-07-16T06:35:36.769Z,22.30
2018-07-16T06:38:04.924Z,22.30
2018-07-16T06:40:33.141Z,22.20
2018-07-16T06:43:01.016Z,22.20
2018-07-16T06:45:29.064Z,22.20
2018-07-16T06:47:57.116Z,22.20
2018-07-16T06:50:25.156Z,22.30
2018-07-16T06:52:53.196Z,22.40
2018-07-16T06:55:21.254Z,22.50
2018-07-16T06:57:49.298Z,22.50
2018-07-16T07:00:17.346Z,22.40
2018-07-16T07:02:45.379Z,22.40
2018-07-16T07:05:13.467Z,22.50
2018-07-16T07:07:41.515Z,22.60
2018-07-16T07:10:09.651Z,22.70
2018-07-16T07:12:37.601Z,22.80
2018-07-16T07:15:05.680Z,22.80
2018-07-16T07:17:33.724Z,22.90
2018-07-16T07:20:01.782Z,23.00
2018-07-16T07:22:29.845Z,23.20
2018-07-16T07:24:57.928Z,23.30
2018-07-16T07:27:25.976Z,23.60
2018-07-16T07:29:54.213Z,23.60
2018-07-16T07:32:22.263Z,23.70
2018-07-16T07:37:18.249Z,24.30
2018-07-16T07:39:46.471Z,24.70
2018-07-16T07:42:14.517Z,25.00
2018-07-16T07:44:42.720Z,25.30
2018-07-16T07:47:10.776Z,25.40
2018-07-16T07:49:38.816Z,25.20
2018-07-16T07:52:06.864Z,25.20
2018-07-16T07:54:35.163Z,25.20
2018-07-16T07:57:03.023Z,25.50
2018-07-16T07:59:31.064Z,25.80
2018-07-16T08:01:59.220Z,26.30
2018-07-16T08:04:27.272Z,26.70
2018-07-16T08:07:00.861Z,26.70
2018-07-16T08:11:56.756Z,26.80
2018-07-16T08:14:24.792Z,26.90
2018-07-16T08:16:52.865Z,27.30
2018-07-16T08:19:20.947Z,27.50
2018-07-16T08:21:49.013Z,27.80
2018-07-16T08:24:17.082Z,28.20
2018-07-16T08:26:45.147Z,28.50
2018-07-16T08:29:13.220Z,28.80
2018-07-16T08:31:41.316Z,29.00
2018-07-16T08:34:09.388Z,29.20
2018-07-16T08:36:37.448Z,29.00
2018-07-16T08:39:06.160Z,28.90
2018-07-16T08:41:34.304Z,28.80
2018-07-16T08:44:02.696Z,28.70
2018-07-16T08:46:30.896Z,28.70
2018-07-16T08:48:59.192Z,28.70
2018-07-16T08:51:27.300Z,28.90
2018-07-16T08:53:55.416Z,29.20
2018-07-16T08:56:23.493Z,29.40
2018-07-16T08:58:51.548Z,29.60
2018-07-16T09:01:19.608Z,30.10
2018-07-16T09:03:47.667Z,30.60
2018-07-16T09:06:15.734Z,31.00
2018-07-16T09:08:43.796Z,31.30
2018-07-16T09:11:11.927Z,31.60
2018-07-16T09:13:40.047Z,31.90
2018-07-16T09:16:08.025Z,31.90
2018-07-16T09:18:36.076Z,31.90
2018-07-16T09:21:04.193Z,31.80
2018-07-16T09:23:32.250Z,31.60
2018-07-16T09:26:00.315Z,31.60
2018-07-16T09:28:28.382Z,31.60
2018-07-16T09:30:56.452Z,31.30
2018-07-16T09:33:24.512Z,31.40
2018-07-16T09:35:52.577Z,31.00
2018-07-16T09:38:20.646Z,30.50
2018-07-16T09:40:48.708Z,30.60
2018-07-16T09:43:16.773Z,30.50
2018-07-16T09:45:44.828Z,30.70
2018-07-16T09:48:12.909Z,31.10
2018-07-16T09:50:40.965Z,31.10
2018-07-16T09:53:09.033Z,31.10
2018-07-16T09:55:37.097Z,31.20
2018-07-16T09:58:05.384Z,30.90
2018-07-16T10:00:38.302Z,31.00
2018-07-16T10:03:06.633Z,30.80
2018-07-16T10:05:34.699Z,30.60
2018-07-16T10:08:02.767Z,31.00
2018-07-16T10:10:30.840Z,31.20
2018-07-16T10:12:58.905Z,31.60
2018-07-16T10:15:26.970Z,31.80
2018-07-16T10:17:55.029Z,31.80
2018-07-16T10:20:23.222Z,32.40
2018-07-16T10:22:51.192Z,32.50
2018-07-16T10:25:19.233Z,32.70
2018-07-16T10:27:47.301Z,33.10
2018-07-16T10:30:15.337Z,32.80
2018-07-16T10:32:43.388Z,32.90
2018-07-16T10:37:39.361Z,32.50
2018-07-16T10:40:07.404Z,32.10
2018-07-16T10:42:35.458Z,32.30
2018-07-16T10:45:03.593Z,32.80
2018-07-16T10:47:31.631Z,33.40
2018-07-16T10:49:59.688Z,34.00
2018-07-16T10:52:27.752Z,34.20
2018-07-16T10:54:55.804Z,34.30
2018-07-16T10:57:23.857Z,34.00
2018-07-16T10:59:51.900Z,33.60
2018-07-16T11:04:47.788Z,33.00
2018-07-16T11:07:15.840Z,32.60
2018-07-16T11:09:44.048Z,32.50
2018-07-16T11:12:12.124Z,32.60
2018-07-16T11:17:08.036Z,32.90
2018-07-16T11:19:36.076Z,33.40
2018-07-16T11:22:04.140Z,33.80
2018-07-16T11:24:32.177Z,33.80
2018-07-16T11:27:00.225Z,33.80
2018-07-16T11:29:28.260Z,34.20
2018-07-16T11:31:56.300Z,34.60
2018-07-16T11:34:24.345Z,34.70
2018-07-16T11:36:52.433Z,34.80
2018-07-16T11:39:20.477Z,35.00
2018-07-16T11:41:48.528Z,34.90
2018-07-16T11:44:16.560Z,34.80
2018-07-16T11:46:44.592Z,34.60
2018-07-16T11:49:12.632Z,34.80
2018-07-16T11:51:40.668Z,34.70
2018-07-16T11:54:08.718Z,33.80
2018-07-16T11:56:36.760Z,33.40
2018-07-16T11:59:04.866Z,33.60
2018-07-16T12:01:32.864Z,34.00
2018-07-16T12:04:00.915Z,34.40
2018-07-16T12:06:28.948Z,34.80
2018-07-16T12:08:57.009Z,34.90
2018-07-16T12:11:25.048Z,34.60
2018-07-16T12:13:53.277Z,34.70
2018-07-16T12:16:21.341Z,34.90
2018-07-16T12:18:49.412Z,35.10
2018-07-16T12:21:17.516Z,35.20
2018-07-16T12:23:45.585Z,35.30
2018-07-16T12:26:13.636Z,35.20
2018-07-16T12:28:41.695Z,35.00
2018-07-16T12:31:09.759Z,34.80
2018-07-16T12:33:37.824Z,34.90
2018-07-16T12:36:05.897Z,35.00
2018-07-16T12:38:33.980Z,34.70
2018-07-16T12:43:30.204Z,34.00
2018-07-16T12:45:58.258Z,34.20
2018-07-16T12:48:26.324Z,34.60
2018-07-16T12:50:54.388Z,34.60
2018-07-16T12:53:22.448Z,34.80
2018-07-16T12:55:50.504Z,35.10
2018-07-16T12:58:18.573Z,35.20
2018-07-16T13:00:46.624Z,35.40
2018-07-16T13:03:14.689Z,35.50
2018-07-16T13:05:42.744Z,35.30
2018-07-16T13:08:10.808Z,35.50
2018-07-16T13:10:38.881Z,35.90
2018-07-16T13:13:06.948Z,36.20
2018-07-16T13:15:35.009Z,36.30
2018-07-16T13:18:03.132Z,36.30
2018-07-16T13:20:31.200Z,36.50
2018-07-16T13:22:59.260Z,36.70
2018-07-16T13:25:27.325Z,36.80
2018-07-16T13:27:55.392Z,36.70
2018-07-16T13:30:23.465Z,36.60
2018-07-16T13:32:51.516Z,36.30
2018-07-16T13:35:19.574Z,36.20
2018-07-16T13:37:47.646Z,35.90
2018-07-16T13:40:15.704Z,36.00
2018-07-16T13:42:43.819Z,36.10
2018-07-16T13:45:11.888Z,36.10
2018-07-16T13:47:40.007Z,36.10
2018-07-16T13:50:08.117Z,36.00
2018-07-16T13:52:36.149Z,36.00
2018-07-16T13:55:04.212Z,35.90
2018-07-16T13:57:32.281Z,35.80
2018-07-16T14:00:00.331Z,35.80
2018-07-16T14:02:28.389Z,35.60
2018-07-16T14:04:56.452Z,35.30
2018-07-16T14:07:24.516Z,35.00
2018-07-16T14:09:52.584Z,34.50
2018-07-16T14:12:20.682Z,34.20
2018-07-16T14:14:48.732Z,34.20
2018-07-16T14:17:16.791Z,34.30
2018-07-16T14:19:44.841Z,34.50
2018-07-16T14:22:12.881Z,34.60
2018-07-16T14:24:40.932Z,34.80
2018-07-16T14:27:09.009Z,35.10
2018-07-16T14:29:37.107Z,35.20
2018-07-16T14:32:05.132Z,35.40
2018-07-16T14:34:33.301Z,35.40
2018-07-16T14:37:01.341Z,35.50
2018-07-16T14:39:29.517Z,35.50
2018-07-16T14:41:57.434Z,35.40
2018-07-16T14:44:25.496Z,35.20
2018-07-16T14:46:53.536Z,34.80
2018-07-16T14:49:21.593Z,34.90
2018-07-16T14:51:49.633Z,35.00
2018-07-16T14:54:17.675Z,35.00
2018-07-16T14:56:45.723Z,35.10
2018-07-16T14:59:13.789Z,34.90
2018-07-16T15:01:41.852Z,34.60
2018-07-16T15:04:09.893Z,34.30
2018-07-16T15:06:37.943Z,34.30
2018-07-16T15:09:07.658Z,34.40
2018-07-16T15:11:35.720Z,34.50
2018-07-16T15:14:03.895Z,34.20
2018-07-16T15:16:31.829Z,34.20
2018-07-16T15:18:59.881Z,34.30
2018-07-16T15:21:28.106Z,34.30
2018-07-16T15:23:56.014Z,34.20
2018-07-16T15:26:24.013Z,34.20
2018-07-16T15:28:52.064Z,34.30
2018-07-16T15:31:20.104Z,34.60
2018-07-16T15:33:48.152Z,34.70
2018-07-16T15:36:16.436Z,34.90
2018-07-16T15:38:44.486Z,35.10
2018-07-16T15:41:12.912Z,35.10
2018-07-16T15:43:40.986Z,35.20
2018-07-16T15:46:09.024Z,35.20
2018-07-16T15:48:37.092Z,35.10
2018-07-16T15:51:05.135Z,34.90
2018-07-16T15:53:33.196Z,34.50
2018-07-16T15:56:01.233Z,33.90
2018-07-16T15:58:29.508Z,33.50
2018-07-16T16:00:57.724Z,33.10
2018-07-16T16:03:25.760Z,32.80
2018-07-16T16:05:53.821Z,32.40
2018-07-16T16:08:21.868Z,32.30
2018-07-16T16:10:49.924Z,32.10
2018-07-16T16:13:17.969Z,32.10
2018-07-16T16:15:46.017Z,32.20
2018-07-16T16:18:14.100Z,32.30
2018-07-16T16:20:42.162Z,32.20
2018-07-16T16:23:10.222Z,32.10
2018-07-16T16:25:38.268Z,32.10
2018-07-16T16:28:06.315Z,32.10
2018-07-16T16:30:34.412Z,32.20
2018-07-16T16:33:02.498Z,32.30
2018-07-16T16:35:30.692Z,32.30
2018-07-16T16:37:59.160Z,32.30
2018-07-16T16:40:27.273Z,32.40
2018-07-16T16:42:55.330Z,32.40
2018-07-16T16:45:23.360Z,32.60
2018-07-16T16:47:51.399Z,32.70
2018-07-16T16:50:19.462Z,32.80
2018-07-16T16:52:47.616Z,32.80
2018-07-16T16:55:15.624Z,32.60
2018-07-16T16:57:43.673Z,32.60
2018-07-16T17:00:11.764Z,32.60
2018-07-16T17:02:39.765Z,32.40
2018-07-16T17:05:07.823Z,32.30
2018-07-16T17:07:35.967Z,32.10
2018-07-16T17:10:04.016Z,32.00
2018-07-16T17:12:32.060Z,31.70
2018-07-16T17:15:00.121Z,31.50
2018-07-16T17:17:28.212Z,31.30
2018-07-16T17:19:56.285Z,31.20
2018-07-16T17:22:24.352Z,31.00
2018-07-16T17:24:52.428Z,30.70
2018-07-16T17:27:20.512Z,30.50
2018-07-16T17:29:48.580Z,30.30
2018-07-16T17:32:16.635Z,30.10
2018-07-16T17:34:44.783Z,29.90
2018-07-16T17:37:12.780Z,29.80
2018-07-16T17:39:40.844Z,29.60
2018-07-16T17:42:08.904Z,29.40
2018-07-16T17:44:36.973Z,29.30
2018-07-16T17:47:05.223Z,29.20
2018-07-16T17:49:33.313Z,29.10
2018-07-16T17:52:01.366Z,29.00
2018-07-16T17:54:29.649Z,29.00
2018-07-16T17:56:57.767Z,28.80
2018-07-16T17:59:25.840Z,28.80
2018-07-16T18:01:54.032Z,28.70
2018-07-16T18:04:22.072Z,28.70
2018-07-16T18:06:50.140Z,28.70
2018-07-16T18:09:18.204Z,28.70
2018-07-16T18:11:46.288Z,28.60
2018-07-16T18:14:14.388Z,28.50
2018-07-16T18:16:42.445Z,28.40
2018-07-16T18:19:10.513Z,28.20
2018-07-16T18:21:38.589Z,28.20
2018-07-16T18:24:06.792Z,28.10
2018-07-16T18:26:34.879Z,28.00
2018-07-16T18:29:02.954Z,27.90
2018-07-16T18:31:31.013Z,27.80
2018-07-16T18:36:27.015Z,27.80
2018-07-16T18:38:55.081Z,27.70
2018-07-16T18:41:23.148Z,27.60
2018-07-16T18:43:51.216Z,27.60
2018-07-16T18:46:19.516Z,27.50
2018-07-16T18:48:47.595Z,27.40
2018-07-16T18:51:15.665Z,27.30
2018-07-16T18:53:43.713Z,27.20
2018-07-16T18:56:11.789Z,27.00
2018-07-16T18:58:39.860Z,27.00
2018-07-16T19:01:07.939Z,26.80
2018-07-16T19:06:03.934Z,26.70
2018-07-16T19:08:32.000Z,26.60
2018-07-16T19:11:00.061Z,26.40
2018-07-16T19:13:28.124Z,26.40
2018-07-16T19:15:56.180Z,26.20
2018-07-16T19:18:24.215Z,26.20
2018-07-16T19:20:52.260Z,26.00
2018-07-16T19:23:20.296Z,25.90
2018-07-16T19:25:48.357Z,25.70
2018-07-16T19:28:16.392Z,25.60
2018-07-16T19:30:44.443Z,25.50
2018-07-16T19:33:12.493Z,25.40
2018-07-16T19:35:40.602Z,25.30
2018-07-16T19:38:08.591Z,25.20
2018-07-16T19:40:36.641Z,25.10
2018-07-16T19:43:04.684Z,24.90
2018-07-16T19:45:32.740Z,24.80
2018-07-16T19:48:00.788Z,24.70
2018-07-16T19:50:28.837Z,24.60
2018-07-16T19:52:56.913Z,24.50
2018-07-16T19:55:24.948Z,24.40
2018-07-16T19:57:53.068Z,24.30
2018-07-16T20:00:21.431Z,24.10
2018-07-16T20:02:49.577Z,24.00
2018-07-16T20:05:17.533Z,23.90
2018-07-16T20:07:45.585Z,23.90
2018-07-16T20:10:13.629Z,23.80
2018-07-16T20:12:41.689Z,23.80
2018-07-16T20:15:10.093Z,23.70
2018-07-16T20:17:38.143Z,23.60
2018-07-16T20:20:08.061Z,23.60
2018-07-16T20:22:36.116Z,23.50
2018-07-16T20:25:04.977Z,23.50
2018-07-16T20:27:33.023Z,23.40
2018-07-16T20:30:01.062Z,23.30
2018-07-16T20:32:29.140Z,23.20
2018-07-16T20:34:57.148Z,23.20
2018-07-16T20:37:25.195Z,23.10
2018-07-16T20:39:53.299Z,23.00
2018-07-16T20:42:21.321Z,22.90
2018-07-16T20:44:49.368Z,22.90
2018-07-16T20:47:17.405Z,22.80
2018-07-16T20:49:45.452Z,22.70
2018-07-16T20:52:14.340Z,22.60
2018-07-16T20:54:42.381Z,22.50
2018-07-16T20:57:10.685Z,22.50
2018-07-16T20:59:38.742Z,22.40
2018-07-16T21:02:06.928Z,22.30
2018-07-16T21:04:34.977Z,22.30
2018-07-16T21:07:03.040Z,22.20
2018-07-16T21:09:31.077Z,22.20
2018-07-16T21:11:59.107Z,22.10
2018-07-16T21:14:27.156Z,22.10
2018-07-16T21:16:55.236Z,22.00
2018-07-16T21:19:23.301Z,22.00
2018-07-16T21:21:51.365Z,21.90
2018-07-16T21:24:19.526Z,21.90
2018-07-16T21:26:47.601Z,21.80
2018-07-16T21:29:15.669Z,21.70
2018-07-16T21:31:43.740Z,21.60
2018-07-16T21:34:11.809Z,21.50
2018-07-16T21:36:39.875Z,21.40
2018-07-16T21:39:07.981Z,21.20
2018-07-16T21:41:36.044Z,21.10
2018-07-16T21:44:04.124Z,21.00
2018-07-16T21:46:32.181Z,21.00
2018-07-16T21:49:00.260Z,21.00
2018-07-16T21:51:28.352Z,21.00
2018-07-16T21:53:56.420Z,21.00
2018-07-16T21:56:24.471Z,20.90
2018-07-16T21:58:52.537Z,20.90
2018-07-16T22:01:20.609Z,20.90
2018-07-16T22:03:48.690Z,20.90
2018-07-16T22:06:16.749Z,20.90
2018-07-16T22:08:44.823Z,20.90
2018-07-16T22:11:12.876Z,20.80
2018-07-16T22:13:40.944Z,20.80
2018-07-16T22:16:09.063Z,20.80
2018-07-16T22:18:37.112Z,20.70
2018-07-16T22:21:05.178Z,20.70
2018-07-16T22:23:33.248Z,20.60
2018-07-16T22:26:01.313Z,20.60
2018-07-16T22:28:29.364Z,20.50
2018-07-16T22:30:57.424Z,20.50
2018-07-16T22:33:25.528Z,20.40
2018-07-16T22:35:53.589Z,20.40
2018-07-16T22:38:21.704Z,20.40
2018-07-16T22:40:49.760Z,20.40
2018-07-16T22:43:17.837Z,20.40
2018-07-16T22:45:45.912Z,20.30
2018-07-16T22:48:13.973Z,20.30
2018-07-16T22:50:42.037Z,20.30
2018-07-16T22:53:10.110Z,20.20
2018-07-16T22:55:38.179Z,20.10
2018-07-16T22:58:06.257Z,20.10
2018-07-16T23:00:34.311Z,20.10
2018-07-16T23:03:02.392Z,20.00
2018-07-16T23:07:58.377Z,19.90
2018-07-16T23:10:26.448Z,19.90
2018-07-16T23:12:54.508Z,19.90
2018-07-16T23:15:22.568Z,19.80
2018-07-16T23:17:50.641Z,19.90
2018-07-16T23:20:18.716Z,19.80
2018-07-16T23:22:56.233Z,19.80
2018-07-16T23:25:24.280Z,19.70
2018-07-16T23:27:52.366Z,19.70
2018-07-16T23:30:20.428Z,19.60
2018-07-16T23:32:48.495Z,19.50
2018-07-16T23:35:17.264Z,19.50
2018-07-16T23:37:45.448Z,19.50
2018-07-16T23:40:13.548Z,19.50
2018-07-16T23:42:41.604Z,19.50
2018-07-16T23:45:09.675Z,19.50
2018-07-16T23:47:37.744Z,19.40
2018-07-16T23:52:33.692Z,19.40
2018-07-16T23:55:01.772Z,19.30
2018-07-16T23:57:30.067Z,19.30
2018-07-16T23:59:58.124Z,19.30
